sensor_id;sensor_type;location;lat;lon;timestamp;pressure;altitude;pressure_sealevel;temperature;humidity
31337;BME280;22846;42.654;23.314;2023-04-24T00:02:22;94264.84;;;26.23;47.33
31337;BME280;22846;42.654;23.314;2023-04-24T00:04:48;94267.72;;;26.28;47.28
31337;BME280;22846;42.654;23.314;2023-04-24T00:07:14;94259.81;;;26.30;47.30
31337;BME280;22846;42.654;23.314;2023-04-24T00:09:42;94233.81;;;26.17;46.64
31337;BME280;22846;42.654;23.314;2023-04-24T00:12:07;94253.56;;;26.30;46.64
31337;BME280;22846;42.654;23.314;2023-04-24T00:14:33;94253.41;;;26.24;46.60
31337;BME280;22846;42.654;23.314;2023-04-24T00:17:00;94246.28;;;26.18;47.01
31337;BME280;22846;42.654;23.314;2023-04-24T00:19:25;94242.19;;;26.13;47.22
31337;BME280;22846;42.654;23.314;2023-04-24T00:21:51;94244.91;;;26.13;47.47
31337;BME280;22846;42.654;23.314;2023-04-24T00:24:16;94231.50;;;26.06;47.41
31337;BME280;22846;42.654;23.314;2023-04-24T00:26:42;94238.50;;;26.16;47.37
31337;BME280;22846;42.654;23.314;2023-04-24T00:29:08;94242.16;;;26.22;47.19
31337;BME280;22846;42.654;23.314;2023-04-24T00:31:33;94249.75;;;26.27;47.24
31337;BME280;22846;42.654;23.314;2023-04-24T00:34:03;94244.88;;;26.31;46.85
31337;BME280;22846;42.654;23.314;2023-04-24T00:36:28;94239.25;;;26.35;47.22
31337;BME280;22846;42.654;23.314;2023-04-24T00:38:56;94242.00;;;26.35;46.91
31337;BME280;22846;42.654;23.314;2023-04-24T00:41:21;94249.59;;;26.31;46.43
31337;BME280;22846;42.654;23.314;2023-04-24T00:43:47;94231.34;;;26.19;46.50
31337;BME280;22846;42.654;23.314;2023-04-24T00:46:13;94234.38;;;26.21;46.84
31337;BME280;22846;42.654;23.314;2023-04-24T00:48:39;94240.81;;;26.18;47.29
31337;BME280;22846;42.654;23.314;2023-04-24T00:51:04;94215.84;;;25.98;47.38
31337;BME280;22846;42.654;23.314;2023-04-24T00:53:30;94245.34;;;26.21;47.29
31337;BME280;22846;42.654;23.314;2023-04-24T00:55:56;94242.44;;;26.24;47.13
31337;BME280;22846;42.654;23.314;2023-04-24T00:58:22;94239.13;;;26.29;46.94
31337;BME280;22846;42.654;23.314;2023-04-24T01:00:48;94244.44;;;26.33;47.16
31337;BME280;22846;42.654;23.314;2023-04-24T01:03:15;94250.50;;;26.37;46.89
31337;BME280;22846;42.654;23.314;2023-04-24T01:05:41;94234.53;;;26.35;46.54
31337;BME280;22846;42.654;23.314;2023-04-24T01:08:07;94215.84;;;26.16;46.37
31337;BME280;22846;42.654;23.314;2023-04-24T01:10:33;94227.53;;;26.25;46.45
31337;BME280;22846;42.654;23.314;2023-04-24T01:13:00;94230.91;;;26.20;46.85
31337;BME280;22846;42.654;23.314;2023-04-24T01:15:25;94228.31;;;26.17;47.43
31337;BME280;22846;42.654;23.314;2023-04-24T01:17:51;94218.13;;;26.17;47.19
31337;BME280;22846;42.654;23.314;2023-04-24T01:20:17;94200.63;;;26.15;47.19
31337;BME280;22846;42.654;23.314;2023-04-24T01:22:42;94204.88;;;26.25;47.04
31337;BME280;22846;42.654;23.314;2023-04-24T01:25:08;94202.72;;;26.29;47.06
31337;BME280;22846;42.654;23.314;2023-04-24T01:27:33;94210.34;;;26.34;46.97
31337;BME280;22846;42.654;23.314;2023-04-24T01:29:59;94204.69;;;26.37;46.90
31337;BME280;22846;42.654;23.314;2023-04-24T01:32:25;94203.19;;;26.36;46.24
31337;BME280;22846;42.654;23.314;2023-04-24T01:34:51;94208.34;;;26.34;46.40
31337;BME280;22846;42.654;23.314;2023-04-24T01:37:16;94202.13;;;26.25;46.40
31337;BME280;22846;42.654;23.314;2023-04-24T01:39:43;94206.56;;;26.22;47.07
31337;BME280;22846;42.654;23.314;2023-04-24T01:42:08;94200.78;;;26.20;47.44
31337;BME280;22846;42.654;23.314;2023-04-24T01:44:34;94212.78;;;26.23;47.05
31337;BME280;22846;42.654;23.314;2023-04-24T01:47:00;94199.69;;;26.27;47.07
31337;BME280;22846;42.654;23.314;2023-04-24T01:49:26;94206.97;;;26.30;47.07
31337;BME280;22846;42.654;23.314;2023-04-24T01:51:52;94200.91;;;26.35;46.93
31337;BME280;22846;42.654;23.314;2023-04-24T01:54:17;94191.75;;;26.38;46.79
31337;BME280;22846;42.654;23.314;2023-04-24T01:56:43;94198.31;;;26.40;46.81
31337;BME280;22846;42.654;23.314;2023-04-24T01:59:12;94204.69;;;26.37;46.20
31337;BME280;22846;42.654;23.314;2023-04-24T02:01:38;94192.06;;;26.31;46.36
31337;BME280;22846;42.654;23.314;2023-04-24T02:04:08;94200.44;;;26.27;46.48
31337;BME280;22846;42.654;23.314;2023-04-24T02:06:34;94203.66;;;26.26;47.26
31337;BME280;22846;42.654;23.314;2023-04-24T02:08:59;94204.09;;;26.24;47.11
31337;BME280;22846;42.654;23.314;2023-04-24T02:11:25;94197.72;;;26.27;46.89
31337;BME280;22846;42.654;23.314;2023-04-24T02:13:51;94194.06;;;26.30;47.08
31337;BME280;22846;42.654;23.314;2023-04-24T02:16:17;94185.69;;;26.34;47.14
31337;BME280;22846;42.654;23.314;2023-04-24T02:18:43;94188.25;;;26.37;47.00
31337;BME280;22846;42.654;23.314;2023-04-24T02:21:09;94190.09;;;26.40;46.85
31337;BME280;22846;42.654;23.314;2023-04-24T02:23:34;94191.16;;;26.43;46.85
31337;BME280;22846;42.654;23.314;2023-04-24T02:26:00;94191.63;;;26.41;46.41
31337;BME280;22846;42.654;23.314;2023-04-24T02:28:25;94192.97;;;26.37;46.29
31337;BME280;22846;42.654;23.314;2023-04-24T02:30:51;94182.63;;;26.32;46.62
31337;BME280;22846;42.654;23.314;2023-04-24T02:33:16;94188.44;;;26.25;46.64
31337;BME280;22846;42.654;23.314;2023-04-24T02:35:41;94189.19;;;26.25;47.08
31337;BME280;22846;42.654;23.314;2023-04-24T02:38:07;94168.03;;;26.26;47.16
31337;BME280;22846;42.654;23.314;2023-04-24T02:40:32;94165.59;;;26.28;46.99
31337;BME280;22846;42.654;23.314;2023-04-24T02:42:58;94170.63;;;26.29;46.95
31337;BME280;22846;42.654;23.314;2023-04-24T02:45:23;94165.41;;;26.31;46.78
31337;BME280;22846;42.654;23.314;2023-04-24T02:47:48;94160.09;;;26.37;46.99
31337;BME280;22846;42.654;23.314;2023-04-24T02:50:14;94159.22;;;26.40;46.69
31337;BME280;22846;42.654;23.314;2023-04-24T02:52:39;94152.03;;;26.42;46.71
31337;BME280;22846;42.654;23.314;2023-04-24T02:55:05;94137.28;;;26.31;46.60
31337;BME280;22846;42.654;23.314;2023-04-24T02:57:31;94160.56;;;26.44;46.39
31337;BME280;22846;42.654;23.314;2023-04-24T02:59:56;94164.22;;;26.41;45.94
31337;BME280;22846;42.654;23.314;2023-04-24T03:02:21;94175.78;;;26.36;46.24
31337;BME280;22846;42.654;23.314;2023-04-24T03:04:47;94166.66;;;26.30;47.06
31337;BME280;22846;42.654;23.314;2023-04-24T03:07:15;94176.09;;;26.29;47.16
31337;BME280;22846;42.654;23.314;2023-04-24T03:09:40;94170.00;;;26.25;47.05
31337;BME280;22846;42.654;23.314;2023-04-24T03:12:06;94170.78;;;26.26;46.87
31337;BME280;22846;42.654;23.314;2023-04-24T03:14:32;94179.72;;;26.35;46.71
31337;BME280;22846;42.654;23.314;2023-04-24T03:16:57;94176.84;;;26.39;46.85
31337;BME280;22846;42.654;23.314;2023-04-24T03:19:22;94186.13;;;26.41;46.51
31337;BME280;22846;42.654;23.314;2023-04-24T03:21:48;94180.97;;;26.43;46.72
31337;BME280;22846;42.654;23.314;2023-04-24T03:24:14;94182.47;;;26.44;46.35
31337;BME280;22846;42.654;23.314;2023-04-24T03:26:40;94184.16;;;26.42;46.00
31337;BME280;22846;42.654;23.314;2023-04-24T03:29:05;94180.78;;;26.38;46.25
31337;BME280;22846;42.654;23.314;2023-04-24T03:31:30;94182.94;;;26.34;46.63
31337;BME280;22846;42.654;23.314;2023-04-24T03:33:56;94178.69;;;26.33;46.99
31337;BME280;22846;42.654;23.314;2023-04-24T03:36:21;94176.44;;;26.22;47.07
31337;BME280;22846;42.654;23.314;2023-04-24T03:38:46;94185.22;;;26.35;46.79
31337;BME280;22846;42.654;23.314;2023-04-24T03:41:12;94182.00;;;26.37;46.54
31337;BME280;22846;42.654;23.314;2023-04-24T03:43:37;94184.59;;;26.40;46.83
31337;BME280;22846;42.654;23.314;2023-04-24T03:46:03;94173.97;;;26.42;46.61
31337;BME280;22846;42.654;23.314;2023-04-24T03:48:29;94164.81;;;26.36;46.55
31337;BME280;22846;42.654;23.314;2023-04-24T03:50:54;94171.81;;;26.46;46.70
31337;BME280;22846;42.654;23.314;2023-04-24T03:53:19;94175.00;;;26.45;47.41
31337;BME280;22846;42.654;23.314;2023-04-24T03:55:45;94177.63;;;26.39;48.22
31337;BME280;22846;42.654;23.314;2023-04-24T03:58:11;94182.16;;;26.33;48.16
31337;BME280;22846;42.654;23.314;2023-04-24T04:00:37;94178.06;;;26.29;47.54
31337;BME280;22846;42.654;23.314;2023-04-24T04:03:03;94174.59;;;26.28;47.63
31337;BME280;22846;42.654;23.314;2023-04-24T04:05:29;94189.81;;;26.29;47.57
31337;BME280;22846;42.654;23.314;2023-04-24T04:07:54;94179.13;;;26.31;47.60
31337;BME280;22846;42.654;23.314;2023-04-24T04:10:20;94193.91;;;26.34;47.37
31337;BME280;22846;42.654;23.314;2023-04-24T04:12:46;94171.22;;;26.33;47.35
31337;BME280;22846;42.654;23.314;2023-04-24T04:15:11;94182.00;;;26.37;47.36
31337;BME280;22846;42.654;23.314;2023-04-24T04:17:37;94178.81;;;26.38;47.19
31337;BME280;22846;42.654;23.314;2023-04-24T04:20:04;94183.41;;;26.41;47.22
31337;BME280;22846;42.654;23.314;2023-04-24T04:22:33;94175.94;;;26.42;47.28
31337;BME280;22846;42.654;23.314;2023-04-24T04:24:59;94192.09;;;26.40;47.69
31337;BME280;22846;42.654;23.314;2023-04-24T04:27:25;94182.63;;;26.32;47.00
31337;BME280;22846;42.654;23.314;2023-04-24T04:29:50;94186.28;;;26.29;47.30
31337;BME280;22846;42.654;23.314;2023-04-24T04:32:16;94180.97;;;26.25;47.44
31337;BME280;22846;42.654;23.314;2023-04-24T04:34:41;94184.19;;;26.24;47.44
31337;BME280;22846;42.654;23.314;2023-04-24T04:37:07;94188.88;;;26.23;47.94
31337;BME280;22846;42.654;23.314;2023-04-24T04:39:34;94192.88;;;26.22;47.97
31337;BME280;22846;42.654;23.314;2023-04-24T04:41:59;94196.81;;;26.21;47.61
31337;BME280;22846;42.654;23.314;2023-04-24T04:44:25;94202.59;;;26.14;46.98
31337;BME280;22846;42.654;23.314;2023-04-24T04:46:52;94215.38;;;26.08;47.43
31337;BME280;22846;42.654;23.314;2023-04-24T04:49:18;94208.09;;;25.96;47.52
31337;BME280;22846;42.654;23.314;2023-04-24T04:51:46;94217.53;;;25.95;47.90
31337;BME280;22846;42.654;23.314;2023-04-24T04:54:12;94216.91;;;25.91;48.07
31337;BME280;22846;42.654;23.314;2023-04-24T04:56:37;94218.75;;;25.85;48.27
31337;BME280;22846;42.654;23.314;2023-04-24T04:59:02;94222.38;;;25.82;48.40
31337;BME280;22846;42.654;23.314;2023-04-24T05:01:28;94218.75;;;25.76;48.78
31337;BME280;22846;42.654;23.314;2023-04-24T05:03:53;94219.28;;;25.71;48.58
31337;BME280;22846;42.654;23.314;2023-04-24T05:06:19;94212.44;;;25.67;48.85
31337;BME280;22846;42.654;23.314;2023-04-24T05:08:44;94222.03;;;25.62;48.87
31337;BME280;22846;42.654;23.314;2023-04-24T05:11:10;94220.22;;;25.60;48.91
31337;BME280;22846;42.654;23.314;2023-04-24T05:13:35;94223.53;;;25.55;48.82
31337;BME280;22846;42.654;23.314;2023-04-24T05:16:00;94220.53;;;25.53;48.93
31337;BME280;22846;42.654;23.314;2023-04-24T05:18:26;94220.63;;;25.49;49.09
31337;BME280;22846;42.654;23.314;2023-04-24T05:20:51;94225.03;;;25.47;49.19
31337;BME280;22846;42.654;23.314;2023-04-24T05:23:17;94215.94;;;25.41;49.02
31337;BME280;22846;42.654;23.314;2023-04-24T05:25:42;94218.66;;;25.41;48.95
31337;BME280;22846;42.654;23.314;2023-04-24T05:28:08;94218.34;;;25.39;49.19
31337;BME280;22846;42.654;23.314;2023-04-24T05:30:33;94215.28;;;25.37;49.09
31337;BME280;22846;42.654;23.314;2023-04-24T05:32:58;94218.50;;;25.35;49.41
31337;BME280;22846;42.654;23.314;2023-04-24T05:35:24;94212.28;;;25.35;49.46
31337;BME280;22846;42.654;23.314;2023-04-24T05:37:50;94217.13;;;25.31;46.11
31337;BME280;22846;42.654;23.314;2023-04-24T05:40:15;94220.31;;;25.29;46.78
31337;BME280;22846;42.654;23.314;2023-04-24T05:42:41;94216.19;;;25.25;46.99
31337;BME280;22846;42.654;23.314;2023-04-24T05:45:06;94222.88;;;25.24;46.80
31337;BME280;22846;42.654;23.314;2023-04-24T05:47:32;94223.69;;;25.03;35.37
31337;BME280;22846;42.654;23.314;2023-04-24T05:49:57;94218.94;;;24.85;38.42
31337;BME280;22846;42.654;23.314;2023-04-24T05:52:23;94218.44;;;24.78;43.01
31337;BME280;22846;42.654;23.314;2023-04-24T05:54:48;94227.09;;;24.77;44.13
31337;BME280;22846;42.654;23.314;2023-04-24T05:57:14;94220.09;;;24.76;44.09
31337;BME280;22846;42.654;23.314;2023-04-24T05:59:40;94219.63;;;24.77;44.44
31337;BME280;22846;42.654;23.314;2023-04-24T06:02:06;94216.34;;;24.82;44.58
31337;BME280;22846;42.654;23.314;2023-04-24T06:04:32;94226.81;;;24.83;44.61
31337;BME280;22846;42.654;23.314;2023-04-24T06:06:57;94214.53;;;24.88;45.20
31337;BME280;22846;42.654;23.314;2023-04-24T06:09:22;94211.97;;;24.93;45.14
31337;BME280;22846;42.654;23.314;2023-04-24T06:11:49;94206.66;;;24.90;45.20
31337;BME280;22846;42.654;23.314;2023-04-24T06:14:14;94217.63;;;24.99;45.54
31337;BME280;22846;42.654;23.314;2023-04-24T06:16:42;94205.59;;;24.96;45.79
31337;BME280;22846;42.654;23.314;2023-04-24T06:19:07;94205.31;;;25.03;45.81
31337;BME280;22846;42.654;23.314;2023-04-24T06:21:32;94219.50;;;25.11;45.81
31337;BME280;22846;42.654;23.314;2023-04-24T06:23:58;94205.31;;;25.03;45.89
31337;BME280;22846;42.654;23.314;2023-04-24T06:26:23;94217.06;;;25.13;46.18
31337;BME280;22846;42.654;23.314;2023-04-24T06:28:50;94213.44;;;25.16;46.68
31337;BME280;22846;42.654;23.314;2023-04-24T06:31:16;94216.91;;;25.16;46.86
31337;BME280;22846;42.654;23.314;2023-04-24T06:33:42;94219.22;;;25.18;46.86
31337;BME280;22846;42.654;23.314;2023-04-24T06:36:08;94207.50;;;25.17;46.55
31337;BME280;22846;42.654;23.314;2023-04-24T06:38:33;94214.50;;;25.18;46.70
31337;BME280;22846;42.654;23.314;2023-04-24T06:40:59;94215.25;;;25.19;46.88
31337;BME280;22846;42.654;23.314;2023-04-24T06:43:25;94223.16;;;25.17;45.77
31337;BME280;22846;42.654;23.314;2023-04-24T06:45:50;94230.16;;;25.18;46.52
31337;BME280;22846;42.654;23.314;2023-04-24T06:48:16;94225.44;;;25.18;46.15
31337;BME280;22846;42.654;23.314;2023-04-24T06:50:41;94225.13;;;25.16;46.34
31337;BME280;22846;42.654;23.314;2023-04-24T06:53:07;94226.50;;;25.21;46.52
31337;BME280;22846;42.654;23.314;2023-04-24T06:55:33;94223.34;;;25.22;46.38
31337;BME280;22846;42.654;23.314;2023-04-24T06:57:58;94224.09;;;25.23;46.58
31337;BME280;22846;42.654;23.314;2023-04-24T07:00:24;94219.38;;;25.23;46.59
31337;BME280;22846;42.654;23.314;2023-04-24T07:02:49;94201.28;;;25.17;46.66
31337;BME280;22846;42.654;23.314;2023-04-24T07:05:15;94207.22;;;25.24;46.55
31337;BME280;22846;42.654;23.314;2023-04-24T07:07:40;94190.63;;;25.19;46.98
31337;BME280;22846;42.654;23.314;2023-04-24T07:10:08;94203.28;;;25.25;47.09
31337;BME280;22846;42.654;23.314;2023-04-24T07:12:33;94209.53;;;25.26;47.19
31337;BME280;22846;42.654;23.314;2023-04-24T07:15:00;94206.78;;;25.26;46.99
31337;BME280;22846;42.654;23.314;2023-04-24T07:17:25;94199.31;;;25.26;47.08
31337;BME280;22846;42.654;23.314;2023-04-24T07:19:51;94200.84;;;25.27;47.02
31337;BME280;22846;42.654;23.314;2023-04-24T07:22:16;94197.38;;;25.27;47.13
31337;BME280;22846;42.654;23.314;2023-04-24T07:24:45;94203.59;;;25.27;47.16
31337;BME280;22846;42.654;23.314;2023-04-24T07:27:10;94198.88;;;25.28;47.36
31337;BME280;22846;42.654;23.314;2023-04-24T07:29:36;94198.88;;;25.28;47.42
31337;BME280;22846;42.654;23.314;2023-04-24T07:32:02;94194.91;;;25.29;47.50
31337;BME280;22846;42.654;23.314;2023-04-24T07:34:27;94189.44;;;25.29;47.56
31337;BME280;22846;42.654;23.314;2023-04-24T07:36:52;94185.50;;;25.30;47.62
31337;BME280;22846;42.654;23.314;2023-04-24T07:39:18;94185.50;;;25.30;47.22
31337;BME280;22846;42.654;23.314;2023-04-24T07:41:43;94192.50;;;25.31;47.44
31337;BME280;22846;42.654;23.314;2023-04-24T07:44:09;94176.88;;;25.31;47.84
31337;BME280;22846;42.654;23.314;2023-04-24T07:46:35;94183.09;;;25.32;47.61
31337;BME280;22846;42.654;23.314;2023-04-24T07:49:00;94180.34;;;25.32;47.50
31337;BME280;22846;42.654;23.314;2023-04-24T07:51:26;94178.34;;;25.32;47.68
31337;BME280;22846;42.654;23.314;2023-04-24T07:53:55;94181.88;;;25.33;47.58
31337;BME280;22846;42.654;23.314;2023-04-24T07:56:21;94158.31;;;25.26;47.78
31337;BME280;22846;42.654;23.314;2023-04-24T07:58:46;94169.72;;;25.34;47.91
31337;BME280;22846;42.654;23.314;2023-04-24T08:01:12;94171.25;;;25.35;47.73
31337;BME280;22846;42.654;23.314;2023-04-24T08:03:37;94176.72;;;25.35;47.73
31337;BME280;22846;42.654;23.314;2023-04-24T08:06:03;94171.25;;;25.35;47.70
31337;BME280;22846;42.654;23.314;2023-04-24T08:08:28;94172.00;;;25.35;48.04
31337;BME280;22846;42.654;23.314;2023-04-24T08:10:53;94169.25;;;25.35;47.91
31337;BME280;22846;42.654;23.314;2023-04-24T08:13:20;94141.13;;;25.17;47.89
31337;BME280;22846;42.654;23.314;2023-04-24T08:15:45;94168.03;;;25.36;47.64
31337;BME280;22846;42.654;23.314;2023-04-24T08:18:11;94163.31;;;25.37;47.95
31337;BME280;22846;42.654;23.314;2023-04-24T08:20:37;94164.84;;;25.38;47.82
31337;BME280;22846;42.654;23.314;2023-04-24T08:23:03;94142.34;;;25.25;47.67
31337;BME280;22846;42.654;23.314;2023-04-24T08:25:28;94155.91;;;25.37;47.70
31337;BME280;22846;42.654;23.314;2023-04-24T08:27:53;94152.38;;;25.37;47.78
31337;BME280;22846;42.654;23.314;2023-04-24T08:30:19;94154.38;;;25.36;47.66
31337;BME280;22846;42.654;23.314;2023-04-24T08:32:45;94151.63;;;25.36;48.12
31337;BME280;22846;42.654;23.314;2023-04-24T08:35:11;94152.84;;;25.35;47.88
31337;BME280;22846;42.654;23.314;2023-04-24T08:37:37;94153.63;;;25.36;47.77
31337;BME280;22846;42.654;23.314;2023-04-24T08:40:13;94145.84;;;25.34;47.76
31337;BME280;22846;42.654;23.314;2023-04-24T08:42:43;94139.94;;;25.36;48.06
31337;BME280;22846;42.654;23.314;2023-04-24T08:45:13;94141.16;;;25.35;48.00
31337;BME280;22846;42.654;23.314;2023-04-24T08:47:39;94137.22;;;25.36;48.03
31337;BME280;22846;42.654;23.314;2023-04-24T08:50:06;94134.16;;;25.34;47.83
31337;BME280;22846;42.654;23.314;2023-04-24T08:52:34;94125.66;;;25.32;47.70
31337;BME280;22846;42.654;23.314;2023-04-24T08:55:03;94127.47;;;25.35;47.72
31337;BME280;22846;42.654;23.314;2023-04-24T08:57:29;94120.81;;;25.36;47.82
31337;BME280;22846;42.654;23.314;2023-04-24T08:59:56;94127.75;;;25.37;47.79
31337;BME280;22846;42.654;23.314;2023-04-24T09:02:23;94116.06;;;25.36;47.90
31337;BME280;22846;42.654;23.314;2023-04-24T09:04:49;94118.81;;;25.36;47.67
31337;BME280;22846;42.654;23.314;2023-04-24T09:07:16;94112.59;;;25.36;47.65
31337;BME280;22846;42.654;23.314;2023-04-24T09:09:43;94107.88;;;25.36;47.80
31337;BME280;22846;42.654;23.314;2023-04-24T09:12:09;94097.22;;;25.29;47.76
31337;BME280;22846;42.654;23.314;2023-04-24T09:14:36;94108.63;;;25.37;47.86
31337;BME280;22846;42.654;23.314;2023-04-24T09:17:05;94109.06;;;25.35;48.03
31337;BME280;22846;42.654;23.314;2023-04-24T09:19:31;94099.97;;;25.38;48.36
31337;BME280;22846;42.654;23.314;2023-04-24T09:21:56;94100.28;;;25.40;48.31
31337;BME280;22846;42.654;23.314;2023-04-24T09:24:22;94093.28;;;25.39;47.90
31337;BME280;22846;42.654;23.314;2023-04-24T09:26:48;94080.50;;;25.36;48.17
31337;BME280;22846;42.654;23.314;2023-04-24T09:29:16;94088.56;;;25.40;47.89
31337;BME280;22846;42.654;23.314;2023-04-24T09:31:42;94085.09;;;25.39;47.98
31337;BME280;22846;42.654;23.314;2023-04-24T09:34:07;94085.09;;;25.39;48.15
31337;BME280;22846;42.654;23.314;2023-04-24T09:36:37;94081.56;;;25.39;48.62
31337;BME280;22846;42.654;23.314;2023-04-24T09:39:05;94074.13;;;25.39;48.30
31337;BME280;22846;42.654;23.314;2023-04-24T09:41:32;94076.88;;;25.39;48.51
31337;BME280;22846;42.654;23.314;2023-04-24T09:44:10;94081.56;;;25.39;48.41
31337;BME280;22846;42.654;23.314;2023-04-24T09:46:36;94079.16;;;25.41;48.31
31337;BME280;22846;42.654;23.314;2023-04-24T09:49:28;94075.66;;;25.40;48.86
31337;BME280;22846;42.654;23.314;2023-04-24T09:52:07;94076.41;;;25.41;48.61
31337;BME280;22846;42.654;23.314;2023-04-24T09:54:33;94072.94;;;25.40;47.92
31337;BME280;22846;42.654;23.314;2023-04-24T09:57:00;94070.94;;;25.41;48.02
31337;BME280;22846;42.654;23.314;2023-04-24T09:59:25;94068.22;;;25.41;48.38
31337;BME280;22846;42.654;23.314;2023-04-24T10:01:51;94068.94;;;25.41;47.97
31337;BME280;22846;42.654;23.314;2023-04-24T10:04:22;94056.50;;;25.40;47.95
31337;BME280;22846;42.654;23.314;2023-04-24T10:06:50;94038.13;;;25.41;48.29
31337;BME280;22846;42.654;23.314;2023-04-24T10:09:17;94042.38;;;25.42;48.29
31337;BME280;22846;42.654;23.314;2023-04-24T10:11:44;94036.91;;;25.42;47.94
31337;BME280;22846;42.654;23.314;2023-04-24T10:14:14;94023.97;;;25.42;48.04
31337;BME280;22846;42.654;23.314;2023-04-24T10:16:40;94023.97;;;25.42;48.25
31337;BME280;22846;42.654;23.314;2023-04-24T10:19:06;94019.72;;;25.41;47.94
31337;BME280;22846;42.654;23.314;2023-04-24T10:21:32;94009.69;;;25.38;48.26
31337;BME280;22846;42.654;23.314;2023-04-24T10:23:58;94016.53;;;25.43;48.42
31337;BME280;22846;42.654;23.314;2023-04-24T10:26:26;94005.75;;;25.39;48.11
31337;BME280;22846;42.654;23.314;2023-04-24T10:28:52;94018.06;;;25.44;48.13
31337;BME280;22846;42.654;23.314;2023-04-24T10:31:19;94012.59;;;25.44;48.25
31337;BME280;22846;42.654;23.314;2023-04-24T10:33:45;94012.59;;;25.44;48.28
31337;BME280;22846;42.654;23.314;2023-04-24T10:36:13;93996.19;;;25.44;48.36
31337;BME280;22846;42.654;23.314;2023-04-24T10:38:41;94001.66;;;25.44;48.30
31337;BME280;22846;42.654;23.314;2023-04-24T10:41:09;93979.31;;;25.36;48.15
31337;BME280;22846;42.654;23.314;2023-04-24T10:43:39;93994.97;;;25.45;48.17
31337;BME280;22846;42.654;23.314;2023-04-24T10:46:06;93992.97;;;25.45;48.31
31337;BME280;22846;42.654;23.314;2023-04-24T10:48:32;93992.22;;;25.45;48.30
31337;BME280;22846;42.654;23.314;2023-04-24T10:50:57;93982.03;;;25.45;48.18
31337;BME280;22846;42.654;23.314;2023-04-24T10:53:27;93987.50;;;25.45;47.95
31337;BME280;22846;42.654;23.314;2023-04-24T10:56:03;93980.50;;;25.44;48.02
31337;BME280;22846;42.654;23.314;2023-04-24T10:58:40;93975.81;;;25.45;48.34
31337;BME280;22846;42.654;23.314;2023-04-24T11:01:08;93973.81;;;25.45;48.08
31337;BME280;22846;42.654;23.314;2023-04-24T11:03:34;93977.78;;;25.44;48.04
31337;BME280;22846;42.654;23.314;2023-04-24T11:06:08;93974.28;;;25.44;48.57
31337;BME280;22846;42.654;23.314;2023-04-24T11:08:43;93965.78;;;25.42;48.54
31337;BME280;22846;42.654;23.314;2023-04-24T11:11:17;93973.97;;;25.42;48.18
31337;BME280;22846;42.654;23.314;2023-04-24T11:16:30;93972.94;;;25.39;48.50
31337;BME280;22846;42.654;23.314;2023-04-24T11:19:09;93983.09;;;25.39;48.28
31337;BME280;22846;42.654;23.314;2023-04-24T11:27:21;93993.16;;;25.33;48.43
31337;BME280;22846;42.654;23.314;2023-04-24T11:35:20;94014.72;;;25.31;48.79
31337;BME280;22846;42.654;23.314;2023-04-24T11:37:54;94023.69;;;25.31;48.50
31337;BME280;22846;42.654;23.314;2023-04-24T11:40:21;94015.94;;;25.30;48.58
31337;BME280;22846;42.654;23.314;2023-04-24T11:42:52;94010.94;;;25.28;48.31
31337;BME280;22846;42.654;23.314;2023-04-24T11:45:21;94017.91;;;25.29;48.54
31337;BME280;22846;42.654;23.314;2023-04-24T11:47:46;94011.69;;;25.29;48.40
31337;BME280;22846;42.654;23.314;2023-04-24T11:50:14;94016.41;;;25.28;48.59
31337;BME280;22846;42.654;23.314;2023-04-24T11:52:41;93987.38;;;25.22;48.42
31337;BME280;22846;42.654;23.314;2023-04-24T11:55:12;93994.50;;;25.28;48.61
31337;BME280;22846;42.654;23.314;2023-04-24T11:57:49;93989.78;;;25.29;48.43
31337;BME280;22846;42.654;23.314;2023-04-24T12:00:26;93986.31;;;25.28;48.62
31337;BME280;22846;42.654;23.314;2023-04-24T12:03:04;93980.06;;;25.28;48.59
31337;BME280;22846;42.654;23.314;2023-04-24T12:05:30;93972.63;;;25.28;48.79
31337;BME280;22846;42.654;23.314;2023-04-24T12:07:56;93951.53;;;25.20;48.65
31337;BME280;22846;42.654;23.314;2023-04-24T12:10:23;93965.19;;;25.29;48.83
31337;BME280;22846;42.654;23.314;2023-04-24T12:12:49;93967.91;;;25.29;48.85
31337;BME280;22846;42.654;23.314;2023-04-24T12:15:16;93969.44;;;25.30;48.86
31337;BME280;22846;42.654;23.314;2023-04-24T12:17:42;93964.13;;;25.26;48.70
31337;BME280;22846;42.654;23.314;2023-04-24T12:20:08;93963.97;;;25.30;48.62
31337;BME280;22846;42.654;23.314;2023-04-24T12:25:10;93955.75;;;25.30;48.58
31337;BME280;22846;42.654;23.314;2023-04-24T12:27:35;93943.59;;;25.31;48.86
31337;BME280;22846;42.654;23.314;2023-04-24T12:30:05;93930.41;;;25.29;48.65
31337;BME280;22846;42.654;23.314;2023-04-24T12:32:31;93935.41;;;25.31;48.54
31337;BME280;22846;42.654;23.314;2023-04-24T12:34:57;93915.06;;;25.23;48.57
31337;BME280;22846;42.654;23.314;2023-04-24T12:37:24;93914.44;;;25.28;48.28
31337;BME280;22846;42.654;23.314;2023-04-24T12:42:26;93904.56;;;25.30;48.59
31337;BME280;22846;42.654;23.314;2023-04-24T12:44:56;93904.56;;;25.30;48.80
31337;BME280;22846;42.654;23.314;2023-04-24T12:47:22;93899.09;;;25.30;48.43
31337;BME280;22846;42.654;23.314;2023-04-24T12:49:48;93890.91;;;25.30;48.57
31337;BME280;22846;42.654;23.314;2023-04-24T12:52:15;93890.91;;;25.30;48.69
31337;BME280;22846;42.654;23.314;2023-04-24T12:54:42;93885.13;;;25.28;48.62
31337;BME280;22846;42.654;23.314;2023-04-24T12:57:07;93874.50;;;25.30;48.72
31337;BME280;22846;42.654;23.314;2023-04-24T12:59:33;93869.00;;;25.30;48.59
31337;BME280;22846;42.654;23.314;2023-04-24T13:01:58;93869.00;;;25.30;48.56
31337;BME280;22846;42.654;23.314;2023-04-24T13:04:23;93863.53;;;25.30;48.50
31337;BME280;22846;42.654;23.314;2023-04-24T13:06:49;93832.88;;;25.17;48.48